createdAt,value
2019-05-22T00:00:00.296Z,165.22
2019-05-22T00:02:39.015Z,164.22
2019-05-22T00:05:14.686Z,179.55
2019-05-22T00:07:50.511Z,163.62
2019-05-22T00:10:29.811Z,159.65
2019-05-22T00:13:06.264Z,172.22
2019-05-22T00:15:40.305Z,181.35
2019-05-22T00:18:14.848Z,196.85
2019-05-22T00:20:48.611Z,193.55
2019-05-22T00:23:22.055Z,192.68
2019-05-22T00:25:55.019Z,180.07
2019-05-22T00:28:30.484Z,176.90
2019-05-22T00:31:05.959Z,183.35
2019-05-22T00:33:39.246Z,186.45
2019-05-22T00:36:12.756Z,192.65
2019-05-22T00:38:47.652Z,200.35
2019-05-22T00:41:22.852Z,210.13
2019-05-22T00:43:56.597Z,196.35
2019-05-22T00:46:29.754Z,197.68
2019-05-22T00:49:03.981Z,201.12
2019-05-22T00:51:48.530Z,206.57
2019-05-22T00:54:42.948Z,205.92
2019-05-22T00:57:34.123Z,171.87
2019-05-22T01:00:27.215Z,166.20
2019-05-22T01:03:01.549Z,206.95
2019-05-22T01:05:36.564Z,203.98
2019-05-22T01:08:12.832Z,185.05
2019-05-22T01:10:49.741Z,209.70
2019-05-22T01:13:22.812Z,215.00
2019-05-22T01:15:57.765Z,215.43
2019-05-22T01:18:32.311Z,190.43
2019-05-22T01:21:07.072Z,192.47
2019-05-22T01:23:42.347Z,224.65
2019-05-22T01:26:18.582Z,204.45
2019-05-22T01:28:52.744Z,207.50
2019-05-22T01:31:30.262Z,214.65
2019-05-22T01:34:10.351Z,217.55
2019-05-22T01:36:50.082Z,176.68
2019-05-22T01:39:47.122Z,217.40
2019-05-22T01:42:27.600Z,218.85
2019-05-22T01:45:06.507Z,196.57
2019-05-22T01:48:04.682Z,199.97
2019-05-22T01:50:43.323Z,207.65
2019-05-22T01:53:20.151Z,205.43
2019-05-22T01:56:00.797Z,242.05
2019-05-22T01:58:34.206Z,232.67
2019-05-22T02:01:13.965Z,240.25
2019-05-22T02:03:47.123Z,248.10
2019-05-22T02:06:23.126Z,242.47
2019-05-22T02:09:15.556Z,256.57
2019-05-22T02:11:53.643Z,266.80
2019-05-22T02:14:26.876Z,253.37
2019-05-22T02:17:00.689Z,251.45
2019-05-22T02:19:35.675Z,228.07
2019-05-22T02:22:10.479Z,269.43
2019-05-22T02:24:45.992Z,234.25
2019-05-22T02:27:20.592Z,233.93
2019-05-22T02:29:54.878Z,229.70
2019-05-22T02:32:28.658Z,226.40
2019-05-22T02:35:02.252Z,238.95
2019-05-22T02:37:36.012Z,240.72
2019-05-22T02:40:18.758Z,232.90
2019-05-22T02:42:52.777Z,216.12
2019-05-22T02:45:26.508Z,228.00
2019-05-22T02:48:01.640Z,217.70
2019-05-22T02:50:34.392Z,194.87
2019-05-22T02:53:11.145Z,180.55
2019-05-22T02:55:44.174Z,168.32
2019-05-22T02:58:20.528Z,183.85
2019-05-22T03:00:57.650Z,171.22
2019-05-22T03:03:33.144Z,175.95
2019-05-22T03:06:10.560Z,146.77
2019-05-22T03:09:12.725Z,135.68
2019-05-22T03:11:58.624Z,131.63
2019-05-22T03:14:33.955Z,128.85
2019-05-22T03:17:16.018Z,114.65
2019-05-22T03:19:50.639Z,133.05
2019-05-22T03:22:30.517Z,109.52
2019-05-22T03:25:08.400Z,98.78
2019-05-22T03:27:43.860Z,108.63
2019-05-22T03:30:24.877Z,105.22
2019-05-22T03:33:00.357Z,111.70
2019-05-22T03:35:40.204Z,127.45
2019-05-22T03:38:13.304Z,133.93
2019-05-22T03:40:47.200Z,127.78
2019-05-22T03:43:23.211Z,116.12
2019-05-22T03:46:00.072Z,130.83
2019-05-22T03:48:35.133Z,128.42
2019-05-22T03:51:11.972Z,136.87
2019-05-22T03:53:47.203Z,116.95
2019-05-22T03:56:21.698Z,137.43
2019-05-22T03:58:55.484Z,141.90
2019-05-22T04:01:28.492Z,111.50
2019-05-22T04:04:05.899Z,106.73
2019-05-22T04:06:40.707Z,103.02
2019-05-22T04:09:19.365Z,98.93
2019-05-22T04:11:52.567Z,124.60
2019-05-22T04:14:33.770Z,114.30
2019-05-22T04:17:09.635Z,106.80
2019-05-22T04:19:50.048Z,90.83
2019-05-22T04:22:21.901Z,99.00
2019-05-22T04:24:54.677Z,93.50
2019-05-22T04:27:29.614Z,99.85
2019-05-22T04:30:03.791Z,101.15
2019-05-22T04:32:37.250Z,104.03
2019-05-22T04:35:12.281Z,91.10
2019-05-22T04:37:48.379Z,100.47
2019-05-22T04:40:56.055Z,102.37
2019-05-22T04:43:33.323Z,97.20
2019-05-22T04:46:07.777Z,109.72
2019-05-22T04:48:46.075Z,95.37
2019-05-22T04:51:24.597Z,103.87
2019-05-22T04:53:59.197Z,104.20
2019-05-22T04:56:32.035Z,91.28
2019-05-22T04:59:04.805Z,92.87
2019-05-22T05:01:38.015Z,108.40
2019-05-22T05:04:11.060Z,105.32
2019-05-22T05:06:45.065Z,93.78
2019-05-22T05:09:18.318Z,86.17
2019-05-22T05:11:51.223Z,97.25
2019-05-22T05:14:27.001Z,93.90
2019-05-22T05:17:00.120Z,88.77
2019-05-22T05:19:32.837Z,83.03
2019-05-22T05:22:07.276Z,92.63
2019-05-22T05:24:39.834Z,90.42
2019-05-22T05:27:12.491Z,86.30
2019-05-22T05:29:45.053Z,90.95
2019-05-22T05:32:18.314Z,108.50
2019-05-22T05:34:59.279Z,97.47
2019-05-22T05:37:33.357Z,105.20
2019-05-22T05:40:32.918Z,86.55
2019-05-22T05:43:07.984Z,76.23
2019-05-22T05:45:43.269Z,84.40
2019-05-22T05:48:22.430Z,80.83
2019-05-22T05:51:23.125Z,81.27
2019-05-22T05:54:19.734Z,83.90
2019-05-22T05:56:54.745Z,75.13
2019-05-22T05:59:29.849Z,72.93
2019-05-22T06:02:05.206Z,77.65
2019-05-22T06:04:39.014Z,72.17
2019-05-22T06:07:25.965Z,72.40
2019-05-22T06:10:42.251Z,77.10
2019-05-22T06:13:15.000Z,72.65
2019-05-22T06:16:38.140Z,83.80
2019-05-22T06:19:11.190Z,68.85
2019-05-22T06:21:48.560Z,65.45
2019-05-22T06:24:24.645Z,61.33
2019-05-22T06:27:10.424Z,64.10
2019-05-22T06:29:52.719Z,67.08
2019-05-22T06:32:54.850Z,61.88
2019-05-22T06:35:34.699Z,69.58
2019-05-22T06:38:44.554Z,63.30
2019-05-22T06:41:19.977Z,59.93
2019-05-22T06:44:42.710Z,63.58
2019-05-22T06:50:21.166Z,65.72
2019-05-22T06:53:08.893Z,57.45
2019-05-22T06:55:28.463Z,60.45
2019-05-22T06:58:01.662Z,49.23
2019-05-22T07:00:34.670Z,57.17
2019-05-22T07:03:09.766Z,51.45
2019-05-22T07:05:43.850Z,57.60
2019-05-22T07:08:18.161Z,57.97
2019-05-22T07:10:51.057Z,52.73
2019-05-22T07:13:25.763Z,56.48
2019-05-22T07:16:01.541Z,48.15
2019-05-22T07:18:36.937Z,56.88
2019-05-22T07:21:09.847Z,51.15
2019-05-22T07:23:43.005Z,47.60
2019-05-22T07:26:16.045Z,44.95
2019-05-22T07:28:48.711Z,45.50
2019-05-22T07:31:22.093Z,48.02
2019-05-22T07:33:54.982Z,42.27
2019-05-22T07:36:29.855Z,49.53
2019-05-22T07:39:04.803Z,43.10
2019-05-22T07:41:37.512Z,46.75
2019-05-22T07:44:10.318Z,44.15
2019-05-22T07:46:43.231Z,43.75
2019-05-22T07:49:17.993Z,45.28
2019-05-22T07:51:58.942Z,42.95
2019-05-22T07:54:26.047Z,46.88
2019-05-22T07:56:59.768Z,44.23
2019-05-22T07:59:32.699Z,52.00
2019-05-22T08:02:08.073Z,46.73
2019-05-22T08:04:42.992Z,41.65
2019-05-22T08:07:18.171Z,38.85
2019-05-22T08:09:52.762Z,42.70
2019-05-22T08:12:26.007Z,34.65
2019-05-22T08:15:19.142Z,41.60
2019-05-22T08:17:51.962Z,34.25
2019-05-22T08:20:24.992Z,30.12
2019-05-22T08:22:59.212Z,34.98
2019-05-22T08:25:33.189Z,32.50
2019-05-22T08:28:06.788Z,30.40
2019-05-22T08:30:40.493Z,38.75
2019-05-22T08:33:15.344Z,32.03
2019-05-22T08:35:48.506Z,26.30
2019-05-22T08:38:29.114Z,31.17
2019-05-22T08:41:04.292Z,31.52
2019-05-22T08:44:03.318Z,29.50
2019-05-22T08:46:16.923Z,36.17
2019-05-22T08:48:50.641Z,34.15
2019-05-22T08:51:24.258Z,39.05
2019-05-22T08:53:58.086Z,34.53
2019-05-22T08:56:36.443Z,31.00
2019-05-22T08:59:19.512Z,32.90
2019-05-22T09:01:47.845Z,33.25
2019-05-22T09:04:20.597Z,31.05
2019-05-22T09:06:54.519Z,31.00
2019-05-22T09:09:27.355Z,28.70
2019-05-22T09:12:00.239Z,26.80
2019-05-22T09:14:33.617Z,45.70
2019-05-22T09:17:07.034Z,25.00
2019-05-22T09:19:40.108Z,27.73
2019-05-22T09:22:12.757Z,29.57
2019-05-22T09:24:47.179Z,39.88
2019-05-22T09:27:21.569Z,34.53
2019-05-22T09:29:54.311Z,36.48
2019-05-22T09:32:28.013Z,36.30
2019-05-22T09:35:00.858Z,34.95
2019-05-22T09:37:33.999Z,27.90
2019-05-22T09:40:06.978Z,37.08
2019-05-22T09:42:40.233Z,25.35
2019-05-22T09:45:13.245Z,30.77
2019-05-22T09:47:46.315Z,29.90
2019-05-22T09:50:20.770Z,25.27
2019-05-22T09:52:57.964Z,28.15
2019-05-22T09:55:30.313Z,31.05
2019-05-22T09:58:06.369Z,38.02
2019-05-22T10:00:39.213Z,36.98
2019-05-22T10:03:12.312Z,40.50
2019-05-22T10:05:45.824Z,33.42
2019-05-22T10:08:18.958Z,31.45
2019-05-22T10:10:51.953Z,26.40
2019-05-22T10:13:28.441Z,27.42
2019-05-22T10:16:00.208Z,24.87
2019-05-22T10:18:33.488Z,30.88
2019-05-22T10:21:06.885Z,22.77
2019-05-22T10:23:40.416Z,27.50
2019-05-22T10:26:13.517Z,24.05
2019-05-22T10:28:46.443Z,32.93
2019-05-22T10:31:21.736Z,25.32
2019-05-22T10:33:54.659Z,24.23
2019-05-22T10:36:27.799Z,25.75
2019-05-22T10:39:02.091Z,29.82
2019-05-22T10:41:36.575Z,26.50
2019-05-22T10:44:09.871Z,27.30
2019-05-22T10:46:43.460Z,28.70
2019-05-22T10:49:16.289Z,26.02
2019-05-22T10:51:52.248Z,24.25
2019-05-22T10:54:25.356Z,35.68
2019-05-22T10:56:58.294Z,25.35
2019-05-22T10:59:31.026Z,24.47
2019-05-22T11:02:05.823Z,23.57
2019-05-22T11:04:39.809Z,31.33
2019-05-22T11:07:13.476Z,27.60
2019-05-22T11:09:46.360Z,25.27
2019-05-22T11:12:19.167Z,24.30
2019-05-22T11:14:52.405Z,33.98
2019-05-22T11:17:26.208Z,22.25
2019-05-22T11:19:59.078Z,25.82
2019-05-22T11:22:34.873Z,21.82
2019-05-22T11:25:10.519Z,21.95
2019-05-22T11:27:44.730Z,28.38
2019-05-22T11:30:18.779Z,22.37
2019-05-22T11:32:52.852Z,23.98
2019-05-22T11:35:26.966Z,23.25
2019-05-22T11:38:00.168Z,24.55
2019-05-22T11:40:33.232Z,20.88
2019-05-22T11:43:06.025Z,25.20
2019-05-22T11:45:38.728Z,23.38
2019-05-22T11:48:11.438Z,25.35
2019-05-22T11:50:45.101Z,22.65
2019-05-22T11:53:18.063Z,24.63
2019-05-22T11:55:52.133Z,24.67
2019-05-22T11:58:24.986Z,24.57
2019-05-22T12:00:57.663Z,23.98
2019-05-22T12:03:31.827Z,19.10
2019-05-22T12:06:06.355Z,19.27
2019-05-22T12:08:39.921Z,18.73
2019-05-22T12:11:16.760Z,20.30
2019-05-22T12:13:49.474Z,20.52
2019-05-22T12:16:22.732Z,23.60
2019-05-22T12:18:58.739Z,18.60
2019-05-22T12:21:30.131Z,17.98
2019-05-22T12:24:04.580Z,17.57
2019-05-22T12:26:39.484Z,18.90
2019-05-22T12:29:12.364Z,16.15
2019-05-22T12:31:48.615Z,16.50
2019-05-22T12:34:21.875Z,22.30
2019-05-22T12:36:54.667Z,17.23
2019-05-22T12:39:27.568Z,16.37
2019-05-22T12:42:00.841Z,16.37
2019-05-22T12:44:34.120Z,16.62
2019-05-22T12:47:09.387Z,16.75
2019-05-22T12:49:46.346Z,19.95
2019-05-22T12:52:19.596Z,17.37
2019-05-22T12:54:54.578Z,15.55
2019-05-22T12:57:28.370Z,18.27
2019-05-22T13:00:02.957Z,20.27
2019-05-22T13:02:36.976Z,17.20
2019-05-22T13:05:14.051Z,15.35
2019-05-22T13:07:45.865Z,14.75
2019-05-22T13:10:20.219Z,14.20
2019-05-22T13:12:53.314Z,15.88
2019-05-22T13:15:27.347Z,14.50
2019-05-22T13:18:00.663Z,13.55
2019-05-22T13:20:42.318Z,14.30
2019-05-22T13:23:13.198Z,17.48
2019-05-22T13:25:46.247Z,16.17
2019-05-22T13:28:19.065Z,16.05
2019-05-22T13:30:54.823Z,16.75
2019-05-22T13:33:28.625Z,15.23
2019-05-22T13:36:05.307Z,17.27
2019-05-22T13:38:40.093Z,20.08
2019-05-22T13:41:13.474Z,14.87
2019-05-22T13:43:49.570Z,16.73
2019-05-22T13:46:25.191Z,24.47
2019-05-22T13:48:59.021Z,16.23
2019-05-22T13:51:33.232Z,19.40
2019-05-22T13:54:05.948Z,16.37
2019-05-22T13:56:39.557Z,14.85
2019-05-22T13:59:15.962Z,17.40
2019-05-22T14:01:49.860Z,19.32
2019-05-22T14:04:24.637Z,17.35
2019-05-22T14:06:58.246Z,19.82
2019-05-22T14:09:32.756Z,18.98
2019-05-22T14:12:07.456Z,17.87
2019-05-22T14:14:40.344Z,18.40
2019-05-22T14:17:15.980Z,15.08
2019-05-22T14:19:48.965Z,18.32
2019-05-22T14:22:21.726Z,15.48
2019-05-22T14:24:54.462Z,19.67
2019-05-22T14:27:27.316Z,13.93
2019-05-22T14:30:00.593Z,17.17
2019-05-22T14:32:33.905Z,15.38
2019-05-22T14:35:07.240Z,15.43
2019-05-22T14:37:40.980Z,16.65
2019-05-22T14:40:14.446Z,14.95
2019-05-22T14:42:49.766Z,14.35
2019-05-22T14:45:23.183Z,14.50
2019-05-22T14:47:55.767Z,11.73
2019-05-22T14:50:32.539Z,11.55
2019-05-22T14:53:03.637Z,16.87
2019-05-22T14:55:38.404Z,12.45
2019-05-22T14:58:12.028Z,11.53
2019-05-22T15:00:45.329Z,10.40
2019-05-22T15:03:19.072Z,12.93
2019-05-22T15:05:53.057Z,13.95
2019-05-22T15:08:25.887Z,12.58
2019-05-22T15:11:00.751Z,13.08
2019-05-22T15:13:33.678Z,13.50
2019-05-22T15:16:08.278Z,12.88
2019-05-22T15:18:41.179Z,15.03
2019-05-22T15:21:15.862Z,10.18
2019-05-22T15:23:50.403Z,15.35
2019-05-22T15:26:23.402Z,10.70
2019-05-22T15:28:56.707Z,13.83
2019-05-22T15:31:30.300Z,10.55
2019-05-22T15:34:05.676Z,11.30
2019-05-22T15:36:39.686Z,13.83
2019-05-22T15:39:16.897Z,14.98
2019-05-22T15:41:50.167Z,12.37
2019-05-22T15:44:24.171Z,17.23
2019-05-22T15:46:57.583Z,14.68
2019-05-22T15:49:31.097Z,14.50
2019-05-22T15:52:08.465Z,15.50
2019-05-22T15:54:43.468Z,15.05
2019-05-22T15:57:19.767Z,14.93
2019-05-22T15:59:53.345Z,13.15
2019-05-22T16:02:27.112Z,13.00
2019-05-22T16:05:00.641Z,14.85
2019-05-22T16:07:36.813Z,14.95
2019-05-22T16:10:11.517Z,16.75
2019-05-22T16:12:46.280Z,13.68
2019-05-22T16:15:21.435Z,11.75
2019-05-22T16:18:10.311Z,12.70
2019-05-22T16:20:32.287Z,14.47
2019-05-22T16:23:06.648Z,12.73
2019-05-22T16:25:40.359Z,11.75
2019-05-22T16:28:13.908Z,15.38
2019-05-22T16:30:47.228Z,14.93
2019-05-22T16:33:22.613Z,14.90
2019-05-22T16:35:55.736Z,14.95
2019-05-22T16:38:30.459Z,16.82
2019-05-22T16:41:03.668Z,12.05
2019-05-22T16:43:48.946Z,13.95
2019-05-22T16:46:16.016Z,16.52
2019-05-22T16:48:51.284Z,11.40
2019-05-22T16:51:25.868Z,16.52
2019-05-22T16:54:04.728Z,10.93
2019-05-22T16:56:39.920Z,13.83
2019-05-22T16:59:13.781Z,12.15
2019-05-22T17:01:58.868Z,15.00
2019-05-22T17:04:22.056Z,14.15
2019-05-22T17:06:55.610Z,13.98
2019-05-22T17:09:30.839Z,15.38
2019-05-22T17:12:07.421Z,13.30
2019-05-22T17:14:41.655Z,14.80
2019-05-22T17:17:18.398Z,9.85
2019-05-22T17:19:51.503Z,10.10
2019-05-22T17:24:51.157Z,9.40
2019-05-22T17:27:24.057Z,13.65
2019-05-22T17:29:57.372Z,10.08
2019-05-22T17:32:30.779Z,11.75
2019-05-22T17:35:04.909Z,11.43
2019-05-22T17:37:37.715Z,12.60
2019-05-22T17:40:12.754Z,9.23
2019-05-22T17:42:47.821Z,9.83
2019-05-22T17:45:25.159Z,11.45
2019-05-22T17:47:58.805Z,10.15
2019-05-22T17:50:33.824Z,9.00
2019-05-22T17:53:08.674Z,15.63
2019-05-22T17:55:41.656Z,10.82
2019-05-22T17:58:15.079Z,21.45
2019-05-22T18:00:50.066Z,11.35
2019-05-22T18:03:26.148Z,12.07
2019-05-22T18:05:59.409Z,12.50
2019-05-22T18:08:32.074Z,9.58
2019-05-22T18:11:07.773Z,9.70
2019-05-22T18:13:54.705Z,10.00
2019-05-22T18:16:30.435Z,15.08
2019-05-22T18:19:04.656Z,12.98
2019-05-22T18:21:37.746Z,10.38
2019-05-22T18:24:13.710Z,8.88
2019-05-22T18:26:48.229Z,13.70
2019-05-22T18:29:20.886Z,14.53
2019-05-22T18:31:54.004Z,9.63
2019-05-22T18:34:26.916Z,8.73
2019-05-22T18:36:59.639Z,14.95
2019-05-22T18:39:32.616Z,12.58
2019-05-22T18:42:07.408Z,14.20
2019-05-22T18:44:41.345Z,17.87
2019-05-22T18:47:15.624Z,14.65
2019-05-22T18:49:49.307Z,20.32
2019-05-22T18:52:22.361Z,12.30
2019-05-22T18:54:56.109Z,15.20
2019-05-22T18:57:29.083Z,12.80
2019-05-22T19:00:05.486Z,13.30
2019-05-22T19:02:39.145Z,10.35
2019-05-22T19:05:11.923Z,14.55
2019-05-22T19:07:45.142Z,11.75
2019-05-22T19:10:20.079Z,12.33
2019-05-22T19:12:53.312Z,15.05
2019-05-22T19:15:26.739Z,15.00
2019-05-22T19:18:00.747Z,16.32
2019-05-22T19:20:33.953Z,12.35
2019-05-22T19:23:07.297Z,13.03
2019-05-22T19:25:40.316Z,12.93
2019-05-22T19:28:13.302Z,13.13
2019-05-22T19:30:46.298Z,11.48
2019-05-22T19:33:19.527Z,15.15
2019-05-22T19:35:53.609Z,17.37
2019-05-22T19:38:26.626Z,12.25
2019-05-22T19:41:00.792Z,16.97
2019-05-22T19:43:33.768Z,13.43
2019-05-22T19:46:06.683Z,16.77
2019-05-22T19:48:39.993Z,14.95
2019-05-22T19:51:16.370Z,17.15
2019-05-22T19:53:50.521Z,13.22
2019-05-22T19:56:24.248Z,13.62
2019-05-22T19:58:57.857Z,13.48
2019-05-22T20:01:33.027Z,11.57
2019-05-22T20:04:07.182Z,16.93
2019-05-22T20:06:41.701Z,16.17
2019-05-22T20:09:16.518Z,20.43
2019-05-22T20:11:49.296Z,14.98
2019-05-22T20:14:24.636Z,14.80
2019-05-22T20:16:57.876Z,13.40
2019-05-22T20:19:31.211Z,14.58
2019-05-22T20:22:06.057Z,14.13
2019-05-22T20:24:39.101Z,18.25
2019-05-22T20:27:13.541Z,14.68
2019-05-22T20:29:46.784Z,15.68
2019-05-22T20:32:20.069Z,15.28
2019-05-22T20:34:53.352Z,21.73
2019-05-22T20:37:28.992Z,15.65
2019-05-22T20:40:03.645Z,16.60
2019-05-22T20:42:37.348Z,19.37
2019-05-22T20:45:11.181Z,19.23
2019-05-22T20:47:45.907Z,15.50
2019-05-22T20:50:21.668Z,15.20
2019-05-22T20:52:54.586Z,16.67
2019-05-22T20:55:27.271Z,12.40
2019-05-22T20:58:00.728Z,13.60
2019-05-22T21:00:34.517Z,14.18
2019-05-22T21:03:10.882Z,15.98
2019-05-22T21:05:44.278Z,16.30
2019-05-22T21:08:21.318Z,14.68
2019-05-22T21:10:55.760Z,16.15
2019-05-22T21:13:29.591Z,18.25
2019-05-22T21:16:03.012Z,17.55
2019-05-22T21:18:43.039Z,16.23
2019-05-22T21:21:17.918Z,15.53
2019-05-22T21:23:50.779Z,16.30
2019-05-22T21:26:23.619Z,15.35
2019-05-22T21:28:58.254Z,15.05
2019-05-22T21:31:32.787Z,13.32
2019-05-22T21:34:06.526Z,14.10
2019-05-22T21:36:39.397Z,14.85
2019-05-22T21:39:13.145Z,15.98
2019-05-22T21:41:47.199Z,15.43
2019-05-22T21:44:19.904Z,17.42
2019-05-22T21:46:55.021Z,16.20
2019-05-22T21:49:29.657Z,13.28
2019-05-22T21:52:04.608Z,16.45
2019-05-22T21:54:37.258Z,14.58
2019-05-22T21:57:11.061Z,14.73
2019-05-22T21:59:43.989Z,15.90
2019-05-22T22:02:24.675Z,13.50
2019-05-22T22:04:59.180Z,16.57
2019-05-22T22:07:32.352Z,17.60
2019-05-22T22:10:05.888Z,14.03
2019-05-22T22:12:38.969Z,16.67
2019-05-22T22:15:12.457Z,13.70
2019-05-22T22:17:46.873Z,11.05
2019-05-22T22:20:22.459Z,15.85
2019-05-22T22:22:55.319Z,13.30
2019-05-22T22:25:28.934Z,13.75
2019-05-22T22:28:02.725Z,16.15
2019-05-22T22:30:43.685Z,15.08
2019-05-22T22:33:20.823Z,14.93
2019-05-22T22:35:54.459Z,18.98
2019-05-22T22:38:28.242Z,23.45
2019-05-22T22:41:03.175Z,20.37
2019-05-22T22:43:39.069Z,17.40
2019-05-22T22:46:26.063Z,16.52
2019-05-22T22:49:02.474Z,19.23
2019-05-22T22:51:35.851Z,19.67
2019-05-22T22:54:09.318Z,18.70
2019-05-22T22:56:43.038Z,19.55
2019-05-22T22:59:16.826Z,24.00
2019-05-22T23:01:52.904Z,22.25
2019-05-22T23:04:28.726Z,16.02
2019-05-22T23:07:07.324Z,16.50
2019-05-22T23:09:42.355Z,16.70
2019-05-22T23:12:15.392Z,14.95
2019-05-22T23:14:53.280Z,17.82
2019-05-22T23:17:27.444Z,20.12
2019-05-22T23:19:59.416Z,21.55
2019-05-22T23:22:31.457Z,19.25
2019-05-22T23:25:05.884Z,24.60
2019-05-22T23:27:39.158Z,22.37
2019-05-22T23:30:13.109Z,26.10
2019-05-22T23:32:46.455Z,22.27
2019-05-22T23:35:22.023Z,23.85
2019-05-22T23:37:56.378Z,22.30
2019-05-22T23:40:34.830Z,21.60
2019-05-22T23:43:07.848Z,21.30
2019-05-22T23:45:42.584Z,27.73
2019-05-22T23:48:16.543Z,20.75
2019-05-22T23:50:49.453Z,21.45
2019-05-22T23:53:23.345Z,18.98
2019-05-22T23:55:56.333Z,21.20
2019-05-22T23:58:30.150Z,19.85
